< < Back
Terminal Aerodrome Forecast


Current Version              Previous Versions:   1  2  3  4  5  6  7  8  9  

Terminal Aerodrome Forecast

740
FTUS44 KMOB 031136
TAFPNS
TAF
KPNS 031136Z 0312/0412 10004KT 1/4SM FG VV002
     FM031700 16009KT P6SM OVC007
     FM040000 14005KT 4SM BR OVC004
     FM040300 15005KT 1/4SM FG OVC004=

Latest METAR

432
SAUS70 KWBC 031200 RRI
MTRPNS
METAR KPNS 031153Z 12003KT 1/2SM R17/2200V2600FT FG VV002 16/16 A3017
RMK AO2 SLP217 T01610156 10172 20156 53002


USA.gov is the U.S. government's official web portal to all federal, state and local government web resources and services.